Time;durP1;ratioP1;P1;durP2;ratioP2;P2;SDS_P1;SDS_P2;PMS_P1;PMS_P2;Temp;Humidity;BMP_temperature;BMP_pressure;BME280_temperature;BME280_humidity;BME280_pressure;Samples;Min_cycle;Max_cycle;Signal;HPM_P1;HPM_P2
2023/06/09 00:02:00;;;;;;;22.33;12.32;;;18.30;99.90;;;;;;4954300;28;20079;-79
2023/06/09 00:08:08;;;;;;;19.33;13.13;;;18.30;99.90;;;;;;5087525;23;20155;-79
2023/06/09 00:10:34;;;;;;;26.67;12.55;;;18.40;99.90;;;;;;4923612;29;20031;-76
2023/06/09 00:13:00;;;;;;;23.00;12.65;;;18.40;99.90;;;;;;4953937;28;20141;-77
2023/06/09 00:15:26;;;;;;;18.33;11.90;;;18.40;99.90;;;;;;4945215;28;20027;-78
2023/06/09 00:17:53;;;;;;;22.45;12.43;;;18.40;99.90;;;;;;4935398;28;20047;-80
2023/06/09 00:20:20;;;;;;;20.25;11.80;;;18.30;99.90;;;;;;4920725;29;20483;-80
2023/06/09 00:22:48;;;;;;;26.10;13.73;;;18.20;99.90;;;;;;4953635;28;20031;-80
2023/06/09 00:25:16;;;;;;;21.73;13.55;;;18.10;99.90;;;;;;4954059;28;20019;-74
2023/06/09 00:27:45;;;;;;;23.00;13.90;;;18.00;99.90;;;;;;4936648;29;20047;-80
2023/06/09 00:30:14;;;;;;;21.05;13.45;;;18.00;99.90;;;;;;4954042;28;20031;-78
2023/06/09 00:32:42;;;;;;;21.30;14.10;;;17.90;99.90;;;;;;4948521;29;20376;-79
2023/06/09 00:35:08;;;;;;;22.48;12.60;;;18.00;99.90;;;;;;4921550;28;20032;-77
2023/06/09 00:37:34;;;;;;;22.17;14.00;;;18.00;99.90;;;;;;4953421;28;20102;-74
2023/06/09 00:40:00;;;;;;;22.65;14.10;;;18.20;99.90;;;;;;4949072;28;20027;-74
2023/06/09 00:42:30;;;;;;;19.85;12.13;;;18.10;99.90;;;;;;4940250;29;20043;-77
2023/06/09 00:44:56;;;;;;;24.08;15.05;;;18.00;99.90;;;;;;4952906;28;20097;-78
2023/06/09 00:47:22;;;;;;;25.80;13.63;;;18.00;99.90;;;;;;4936396;29;20502;-77
2023/06/09 00:49:48;;;;;;;21.52;13.15;;;18.00;99.90;;;;;;4935946;29;20047;-79
2023/06/09 00:52:15;;;;;;;24.00;13.38;;;18.00;99.90;;;;;;4953344;28;20111;-77
2023/06/09 00:54:41;;;;;;;20.88;12.20;;;18.00;99.90;;;;;;4936223;29;20074;-77
2023/06/09 00:57:08;;;;;;;20.02;12.55;;;18.10;99.90;;;;;;4950472;28;20046;-80
2023/06/09 00:59:35;;;;;;;21.10;14.05;;;18.10;99.90;;;;;;4952771;28;20473;-74
2023/06/09 01:02:03;;;;;;;20.60;13.00;;;18.10;99.90;;;;;;4939887;29;20502;-74
2023/06/09 01:04:34;;;;;;;19.92;12.73;;;18.00;99.90;;;;;;4939927;29;20039;-77
2023/06/09 01:07:24;;;;;;;26.63;13.18;;;18.00;99.90;;;;;;4939715;29;20039;-75
2023/06/09 01:10:06;;;;;;;25.17;13.82;;;17.90;99.90;;;;;;4949581;28;20123;-75
2023/06/09 01:12:38;;;;;;;23.88;14.98;;;18.00;99.90;;;;;;4957246;28;20039;-77
2023/06/09 01:15:30;;;;;;;24.50;13.70;;;18.00;99.90;;;;;;4955779;28;20049;-78
2023/06/09 01:18:00;;;;;;;22.45;13.15;;;18.00;99.90;;;;;;4957318;28;20128;-75
2023/06/09 01:20:45;;;;;;;21.98;13.98;;;18.00;99.90;;;;;;4954474;28;20030;-79
2023/06/09 01:23:32;;;;;;;27.52;13.48;;;18.10;99.90;;;;;;4942852;28;20078;-74
2023/06/09 01:25:59;;;;;;;21.92;12.90;;;18.10;99.90;;;;;;4929700;29;20062;-76
2023/06/09 01:28:28;;;;;;;21.05;13.23;;;18.00;99.90;;;;;;4956926;28;20123;-77
2023/06/09 01:30:55;;;;;;;25.08;13.00;;;18.10;99.90;;;;;;4939932;29;20023;-77
2023/06/09 01:33:24;;;;;;;22.83;12.63;;;18.10;99.90;;;;;;4956612;28;20043;-74
2023/06/09 01:35:52;;;;;;;22.63;12.90;;;18.10;99.90;;;;;;4940077;29;20027;-76
2023/06/09 01:38:20;;;;;;;21.50;13.35;;;18.10;99.90;;;;;;4923037;29;20043;-77
2023/06/09 01:40:47;;;;;;;23.77;14.05;;;18.00;99.90;;;;;;4939367;29;20126;-74
2023/06/09 01:43:13;;;;;;;22.80;13.35;;;18.00;99.90;;;;;;4939160;29;20541;-75
2023/06/09 01:45:39;;;;;;;19.98;11.85;;;18.00;99.90;;;;;;4956672;28;20126;-77
2023/06/09 01:48:55;;;;;;;22.75;14.18;;;18.00;99.90;;;;;;4938792;29;20380;-75
2023/06/09 01:51:40;;;;;;;26.25;12.23;;;18.20;99.90;;;;;;4951497;28;20035;-74
2023/06/09 01:54:23;;;;;;;29.48;13.88;;;18.00;99.90;;;;;;4955703;28;20038;-74
2023/06/09 01:56:58;;;;;;;20.70;13.20;;;18.00;99.90;;;;;;4966583;28;20027;-75
2023/06/09 01:59:32;;;;;;;21.85;12.55;;;18.00;99.90;;;;;;4939435;29;20244;-77
2023/06/09 02:02:02;;;;;;;20.15;12.23;;;18.00;99.90;;;;;;4951268;28;20036;-74
2023/06/09 02:04:30;;;;;;;20.63;12.10;;;17.90;99.90;;;;;;4939113;29;20030;-74
2023/06/09 02:06:57;;;;;;;20.73;12.23;;;17.90;99.90;;;;;;4930930;29;20032;-77
2023/06/09 02:09:24;;;;;;;23.70;12.48;;;17.80;99.90;;;;;;4943571;28;20531;-73
2023/06/09 02:11:51;;;;;;;23.55;14.00;;;17.90;99.90;;;;;;4934925;28;20051;-76
2023/06/09 02:14:18;;;;;;;22.58;13.15;;;18.00;99.90;;;;;;4954898;28;20495;-74
2023/06/09 02:16:46;;;;;;;21.30;13.35;;;18.10;99.90;;;;;;4939105;29;20062;-74
2023/06/09 02:19:12;;;;;;;25.00;14.20;;;17.90;99.90;;;;;;4956024;28;20620;-75
2023/06/09 02:21:38;;;;;;;20.25;11.45;;;17.90;99.90;;;;;;4933428;29;20063;-77
2023/06/09 02:24:05;;;;;;;22.40;12.57;;;17.90;99.90;;;;;;4929292;28;20030;-77
2023/06/09 02:26:32;;;;;;;22.40;12.18;;;18.10;99.90;;;;;;4938863;29;20026;-76
2023/06/09 02:28:59;;;;;;;23.63;11.93;;;18.00;99.90;;;;;;4955951;28;20031;-76
2023/06/09 02:31:30;;;;;;;20.67;12.98;;;18.10;99.90;;;;;;4938533;29;20034;-79
2023/06/09 02:33:56;;;;;;;23.40;13.15;;;18.10;99.90;;;;;;4955274;28;20382;-73
2023/06/09 02:36:23;;;;;;;27.13;13.43;;;18.10;99.90;;;;;;4938294;29;20035;-75
2023/06/09 02:38:50;;;;;;;23.15;13.75;;;18.00;99.90;;;;;;4929631;29;20035;-74
2023/06/09 02:41:16;;;;;;;21.10;12.30;;;18.00;99.90;;;;;;4953144;28;20020;-74
2023/06/09 02:43:41;;;;;;;19.48;11.95;;;18.10;99.90;;;;;;4952907;28;20438;-78
2023/06/09 02:46:09;;;;;;;21.20;12.77;;;18.10;99.90;;;;;;4955286;28;20106;-77
2023/06/09 02:48:35;;;;;;;20.85;12.77;;;18.20;99.90;;;;;;4937810;29;20474;-77
2023/06/09 02:51:01;;;;;;;18.38;10.85;;;18.10;99.90;;;;;;4955068;29;20033;-74
2023/06/09 02:53:28;;;;;;;18.15;10.68;;;18.10;99.90;;;;;;4954027;28;20554;-78
2023/06/09 02:55:55;;;;;;;19.70;11.45;;;18.20;99.90;;;;;;4950625;28;20051;-78
2023/06/09 02:58:25;;;;;;;23.95;11.38;;;18.20;99.90;;;;;;4940090;29;20034;-79
2023/06/09 03:00:52;;;;;;;22.95;13.40;;;18.20;99.90;;;;;;4935206;29;20078;-75
2023/06/09 03:03:18;;;;;;;19.70;12.88;;;18.20;99.90;;;;;;4929241;29;20023;-78
2023/06/09 03:05:46;;;;;;;23.25;12.55;;;18.30;99.90;;;;;;4953552;28;20034;-75
2023/06/09 03:08:14;;;;;;;21.02;11.70;;;18.30;99.90;;;;;;4936450;29;20047;-76
2023/06/09 03:10:41;;;;;;;19.55;12.80;;;18.20;99.90;;;;;;4937917;29;20091;-78
2023/06/09 03:13:09;;;;;;;23.23;13.68;;;18.10;99.90;;;;;;4946850;28;20129;-75
2023/06/09 03:15:40;;;;;;;21.98;12.75;;;18.10;99.90;;;;;;4946774;28;20066;-75
2023/06/09 03:18:07;;;;;;;21.38;12.82;;;18.10;99.90;;;;;;4949502;28;20138;-76
2023/06/09 03:20:36;;;;;;;23.55;14.48;;;18.10;99.90;;;;;;4937707;29;20046;-77
2023/06/09 03:23:06;;;;;;;25.50;13.50;;;18.10;99.90;;;;;;4937284;29;20035;-75
2023/06/09 03:25:33;;;;;;;18.98;12.18;;;18.20;99.90;;;;;;4949874;28;20019;-77
2023/06/09 03:28:00;;;;;;;23.65;13.10;;;18.30;99.90;;;;;;4936311;29;20038;-78
2023/06/09 03:30:26;;;;;;;20.05;12.50;;;18.30;99.90;;;;;;4937661;29;20024;-80
2023/06/09 03:32:52;;;;;;;22.23;13.45;;;18.20;99.90;;;;;;4954363;28;20423;-76
2023/06/09 03:35:18;;;;;;;24.20;13.77;;;18.10;99.90;;;;;;4955131;28;20035;-75
2023/06/09 03:37:44;;;;;;;28.10;14.15;;;18.10;99.90;;;;;;4953913;28;20463;-75
2023/06/09 03:40:10;;;;;;;21.90;13.80;;;18.10;99.90;;;;;;4950221;29;20063;-77
2023/06/09 03:42:36;;;;;;;21.48;14.50;;;18.00;99.90;;;;;;4940525;28;20019;-75
2023/06/09 03:45:02;;;;;;;27.30;14.75;;;18.10;99.90;;;;;;4953458;28;20471;-79
2023/06/09 03:47:30;;;;;;;26.98;14.10;;;18.20;99.90;;;;;;4937546;29;20118;-76
2023/06/09 03:49:57;;;;;;;25.27;14.90;;;18.30;99.90;;;;;;4929235;28;20032;-78
2023/06/09 03:52:26;;;;;;;27.40;13.52;;;18.60;99.90;;;;;;4937196;29;20053;-77
2023/06/09 03:54:52;;;;;;;27.70;12.95;;;19.00;99.90;;;;;;4937052;28;20114;-79
2023/06/09 03:57:20;;;;;;;23.30;11.77;;;19.50;99.90;;;;;;4954606;28;20098;-77
2023/06/09 03:59:46;;;;;;;18.25;11.68;;;19.90;99.90;;;;;;4935287;28;20478;-76
2023/06/09 04:02:12;;;;;;;19.42;12.48;;;20.40;99.90;;;;;;4949636;28;20170;-77
2023/06/09 04:04:38;;;;;;;18.98;11.10;;;20.60;99.90;;;;;;4937751;28;20483;-77
2023/06/09 04:07:05;;;;;;;19.95;10.60;;;21.20;99.90;;;;;;4930579;29;20395;-77
2023/06/09 04:09:34;;;;;;;24.13;10.13;;;21.30;99.90;;;;;;4931617;29;20142;-78
2023/06/09 04:12:00;;;;;;;16.15;10.38;;;21.90;99.90;;;;;;4933277;29;20039;-74
2023/06/09 04:14:26;;;;;;;16.95;10.85;;;22.50;99.90;;;;;;4952972;28;20387;-73
2023/06/09 04:16:53;;;;;;;18.30;9.43;;;23.10;99.90;;;;;;4936694;29;20019;-81
2023/06/09 04:19:21;;;;;;;18.77;9.55;;;22.70;99.90;;;;;;4936914;28;20109;-75
2023/06/09 04:21:48;;;;;;;14.63;8.85;;;23.30;99.90;;;;;;4936748;29;20426;-76
2023/06/09 04:24:14;;;;;;;15.32;9.02;;;23.40;99.90;;;;;;4936726;28;20031;-75
2023/06/09 04:26:43;;;;;;;16.73;10.05;;;23.00;99.90;;;;;;4936734;29;20019;-79
2023/06/09 04:29:10;;;;;;;13.85;8.93;;;23.40;99.90;;;;;;4952539;28;20058;-76
2023/06/09 04:31:42;;;;;;;15.52;8.25;;;24.20;99.90;;;;;;4935297;29;20036;-75
2023/06/09 04:34:10;;;;;;;15.52;8.82;;;24.10;99.90;;;;;;4936410;29;20023;-79
2023/06/09 04:36:39;;;;;;;17.95;8.55;;;24.40;99.90;;;;;;4934944;29;20027;-77
2023/06/09 04:39:08;;;;;;;12.82;8.80;;;24.60;99.90;;;;;;4920460;29;20043;-77
2023/06/09 04:41:35;;;;;;;13.80;8.75;;;24.90;99.90;;;;;;4936403;29;20027;-76
2023/06/09 04:44:05;;;;;;;13.27;8.13;;;25.30;99.90;;;;;;4930402;29;20059;-79
2023/06/09 04:46:37;;;;;;;13.65;7.80;;;25.30;99.90;;;;;;4933509;29;20039;-76
2023/06/09 04:49:08;;;;;;;17.70;8.23;;;25.60;99.90;;;;;;4934944;29;20086;-75
2023/06/09 04:51:48;;;;;;;17.58;7.95;;;25.00;99.90;;;;;;4953426;28;20042;-75
2023/06/09 04:54:22;;;;;;;16.70;8.27;;;24.60;99.90;;;;;;4935724;29;20034;-75
2023/06/09 04:56:52;;;;;;;16.88;8.50;;;24.40;99.90;;;;;;4935038;29;20379;-75
2023/06/09 04:59:20;;;;;;;14.25;8.38;;;24.10;99.90;;;;;;4936258;29;20059;-75
2023/06/09 05:01:47;;;;;;;15.68;8.55;;;23.70;99.90;;;;;;4936407;29;20475;-75
2023/06/09 05:04:13;;;;;;;14.15;8.05;;;23.60;99.90;;;;;;4953396;28;20383;-77
2023/06/09 05:06:41;;;;;;;14.50;8.00;;;23.20;99.90;;;;;;4926357;29;20035;-75
2023/06/09 05:09:07;;;;;;;14.18;8.18;;;23.40;99.90;;;;;;4943355;28;20102;-76
2023/06/09 05:11:35;;;;;;;15.75;8.27;;;23.30;99.90;;;;;;4935810;28;20475;-77
2023/06/09 05:14:02;;;;;;;15.23;8.68;;;23.30;99.90;;;;;;4935317;29;20027;-78
2023/06/09 05:16:29;;;;;;;16.27;8.80;;;23.10;99.90;;;;;;4935371;29;20031;-76
2023/06/09 05:18:56;;;;;;;16.63;7.57;;;22.90;99.90;;;;;;4935756;29;20050;-76
2023/06/09 05:21:25;;;;;;;13.40;8.32;;;22.60;99.90;;;;;;4935352;29;20053;-77
2023/06/09 05:23:52;;;;;;;17.58;8.82;;;22.60;99.90;;;;;;4936024;29;20035;-79
2023/06/09 05:26:19;;;;;;;14.30;8.60;;;22.80;99.90;;;;;;4919976;29;20372;-77
2023/06/09 05:28:46;;;;;;;20.30;8.15;;;22.90;99.90;;;;;;4936189;29;20039;-76
2023/06/09 05:31:12;;;;;;;15.80;8.15;;;23.00;99.90;;;;;;4935910;29;20041;-73
2023/06/09 05:33:39;;;;;;;15.55;9.35;;;23.30;99.90;;;;;;4935930;29;20140;-77
2023/06/09 05:36:06;;;;;;;15.52;8.27;;;23.20;99.90;;;;;;4935635;29;20027;-76
2023/06/09 05:38:33;;;;;;;15.52;8.02;;;23.30;99.90;;;;;;4923866;29;20036;-78
2023/06/09 05:40:59;;;;;;;13.30;7.88;;;23.40;99.90;;;;;;4953109;29;20099;-75
2023/06/09 05:43:29;;;;;;;15.20;8.57;;;23.20;99.90;;;;;;4952954;28;20031;-77
2023/06/09 05:45:56;;;;;;;14.82;8.90;;;23.10;99.90;;;;;;4953316;28;20062;-76
2023/06/09 05:48:22;;;;;;;14.30;8.27;;;23.20;99.90;;;;;;4954955;28;20093;-74
2023/06/09 05:50:49;;;;;;;11.02;7.07;;;23.30;99.90;;;;;;4958974;28;20526;-77
2023/06/09 05:53:16;;;;;;;14.55;8.45;;;23.30;99.90;;;;;;4956269;29;20035;-76
2023/06/09 05:55:44;;;;;;;12.77;7.18;;;23.20;99.90;;;;;;4956422;28;20059;-76
2023/06/09 05:58:11;;;;;;;16.38;7.63;;;23.30;99.90;;;;;;4938657;29;20376;-75
2023/06/09 06:00:37;;;;;;;15.52;7.97;;;23.30;99.90;;;;;;4956006;28;20038;-77
2023/06/09 06:03:04;;;;;;;14.15;7.50;;;23.20;99.90;;;;;;4938970;28;20387;-75
2023/06/09 06:05:30;;;;;;;14.75;8.50;;;23.50;99.90;;;;;;4956299;28;20111;-76
2023/06/09 06:08:01;;;;;;;13.77;8.90;;;23.30;99.90;;;;;;4955964;28;20130;-76
2023/06/09 06:10:27;;;;;;;13.38;7.95;;;23.70;99.90;;;;;;4955928;28;20123;-75
2023/06/09 06:12:53;;;;;;;13.73;8.88;;;23.70;99.90;;;;;;4955746;28;20120;-78
2023/06/09 06:15:19;;;;;;;13.73;8.48;;;23.60;99.90;;;;;;4939058;29;20034;-78
2023/06/09 06:17:45;;;;;;;13.35;6.88;;;23.80;99.90;;;;;;4956187;28;20035;-77
2023/06/09 06:20:12;;;;;;;12.13;7.63;;;23.80;99.90;;;;;;4955889;28;20066;-75
2023/06/09 06:22:39;;;;;;;12.45;6.97;;;23.70;99.90;;;;;;4955826;28;20055;-75
2023/06/09 06:25:05;;;;;;;15.00;8.10;;;24.00;99.90;;;;;;4956259;28;20038;-76
2023/06/09 06:27:31;;;;;;;12.02;8.00;;;23.70;99.90;;;;;;4955900;28;20031;-77
2023/06/09 06:29:56;;;;;;;10.57;7.32;;;24.30;99.90;;;;;;4956104;28;20023;-74
2023/06/09 06:32:23;;;;;;;12.13;7.78;;;24.20;99.90;;;;;;4955434;28;20139;-77
2023/06/09 06:34:48;;;;;;;11.82;7.22;;;24.30;99.90;;;;;;4955750;28;20463;-75
2023/06/09 06:37:14;;;;;;;12.52;7.05;;;24.60;99.90;;;;;;4938374;29;20047;-77
2023/06/09 06:39:40;;;;;;;12.60;8.13;;;24.30;99.90;;;;;;4955825;28;20023;-76
2023/06/09 06:42:06;;;;;;;13.60;8.68;;;24.50;99.90;;;;;;4955190;28;20027;-74
2023/06/09 06:44:46;;;;;;;14.10;7.05;;;24.30;99.90;;;;;;4938026;29;20475;-77
2023/06/09 06:47:12;;;;;;;11.20;7.45;;;24.00;99.90;;;;;;4955731;28;20023;-77
2023/06/09 06:49:38;;;;;;;11.85;7.40;;;24.30;99.90;;;;;;4955195;28;20383;-74
2023/06/09 06:52:04;;;;;;;12.52;7.50;;;24.40;99.90;;;;;;4955796;28;20427;-76
2023/06/09 06:54:30;;;;;;;16.05;8.02;;;24.50;99.90;;;;;;4954438;28;20020;-75
2023/06/09 06:56:56;;;;;;;12.50;7.38;;;24.30;99.90;;;;;;4955710;28;20031;-77
2023/06/09 06:59:22;;;;;;;11.48;7.63;;;24.60;99.90;;;;;;4954801;28;20042;-75
2023/06/09 07:01:49;;;;;;;16.15;8.20;;;24.80;99.90;;;;;;4955357;28;20031;-75
2023/06/09 07:04:15;;;;;;;11.88;7.63;;;24.70;99.90;;;;;;4954746;28;20023;-75
2023/06/09 07:06:41;;;;;;;15.35;8.77;;;24.60;99.90;;;;;;4954792;28;20499;-77
2023/06/09 07:09:07;;;;;;;12.82;7.57;;;25.00;99.90;;;;;;4936761;29;20518;-77
2023/06/09 07:11:33;;;;;;;13.35;7.45;;;25.20;99.90;;;;;;4954536;29;20114;-75
2023/06/09 07:13:58;;;;;;;12.95;7.47;;;24.70;99.90;;;;;;4954752;28;20102;-75
2023/06/09 07:16:24;;;;;;;12.60;7.40;;;24.90;99.90;;;;;;4954730;28;20045;-76
2023/06/09 07:18:50;;;;;;;11.82;7.65;;;24.90;99.90;;;;;;4963949;28;20082;-77
2023/06/09 07:21:16;;;;;;;14.23;7.78;;;25.00;99.90;;;;;;4954694;28;20028;-78
2023/06/09 07:23:42;;;;;;;12.23;8.07;;;24.80;99.90;;;;;;4954960;29;20103;-78
2023/06/09 07:26:07;;;;;;;14.68;8.68;;;25.00;99.90;;;;;;4954466;28;20027;-75
2023/06/09 07:28:33;;;;;;;12.27;7.70;;;25.30;99.90;;;;;;4954445;28;20027;-74
2023/06/09 07:30:59;;;;;;;13.23;8.35;;;25.20;99.90;;;;;;4954597;28;20102;-75
2023/06/09 07:33:25;;;;;;;19.15;8.50;;;25.00;99.90;;;;;;4954520;28;20039;-77
2023/06/09 07:35:52;;;;;;;14.55;8.63;;;24.40;99.90;;;;;;4954718;28;20023;-77
2023/06/09 07:38:20;;;;;;;13.60;7.78;;;24.60;99.90;;;;;;4954456;28;20046;-78
2023/06/09 07:40:46;;;;;;;12.73;8.13;;;25.30;99.90;;;;;;4953892;28;20023;-77
2023/06/09 07:43:12;;;;;;;15.82;8.90;;;25.20;99.90;;;;;;4954599;28;20028;-77
2023/06/09 07:45:38;;;;;;;14.38;8.85;;;25.10;99.90;;;;;;4954595;28;20028;-77
2023/06/09 07:48:04;;;;;;;15.02;9.07;;;;;;;;;;4954223;28;20479;-78
2023/06/09 07:50:30;;;;;;;15.48;10.07;;;25.30;99.90;;;;;;4954019;28;20026;-77
2023/06/09 07:52:56;;;;;;;15.35;9.57;;;25.20;99.90;;;;;;4954227;28;20390;-78
2023/06/09 07:55:22;;;;;;;14.95;9.02;;;25.00;99.90;;;;;;4954334;28;20403;-76
2023/06/09 07:57:48;;;;;;;15.98;9.00;;;25.40;99.90;;;;;;4954131;29;20498;-76
2023/06/09 08:00:15;;;;;;;13.75;9.80;;;25.50;99.90;;;;;;4954076;28;20035;-78
2023/06/09 08:02:42;;;;;;;16.48;9.77;;;25.40;99.90;;;;;;4953934;28;20458;-76
2023/06/09 08:05:09;;;;;;;17.38;9.63;;;25.50;99.90;;;;;;4953227;28;20031;-77
2023/06/09 08:07:35;;;;;;;15.13;10.38;;;25.60;99.90;;;;;;4954191;28;20043;-75
2023/06/09 08:10:02;;;;;;;17.25;9.80;;;25.60;99.90;;;;;;4953105;28;20035;-76
2023/06/09 08:12:28;;;;;;;17.27;9.05;;;25.40;99.90;;;;;;4953151;28;20054;-76
2023/06/09 08:14:53;;;;;;;17.02;9.50;;;25.30;99.90;;;;;;4952637;28;20062;-77
2023/06/09 08:17:19;;;;;;;17.92;10.48;;;25.60;99.90;;;;;;4952008;28;20043;-78
2023/06/09 08:19:45;;;;;;;16.73;9.82;;;25.60;99.90;;;;;;4953514;28;20509;-74
2023/06/09 08:22:12;;;;;;;14.82;10.30;;;25.70;99.90;;;;;;4936557;29;20034;-75
2023/06/09 08:24:37;;;;;;;17.77;10.68;;;25.40;99.90;;;;;;4950496;28;20031;-78
2023/06/09 08:27:07;;;;;;;14.98;10.20;;;25.40;99.90;;;;;;4953350;28;20023;-76
2023/06/09 08:29:33;;;;;;;16.42;10.82;;;25.70;99.90;;;;;;4953462;28;20051;-76
2023/06/09 08:31:58;;;;;;;18.75;12.02;;;26.10;99.90;;;;;;4936462;29;20415;-78
2023/06/09 08:34:27;;;;;;;17.33;12.38;;;;;;;;;;4948458;28;20042;-78
2023/06/09 08:36:53;;;;;;;18.27;11.50;;;26.30;99.90;;;;;;4953020;29;20032;-78
2023/06/09 08:39:18;;;;;;;17.13;10.65;;;25.80;99.90;;;;;;4954231;28;20506;-77
2023/06/09 08:41:50;;;;;;;19.15;11.20;;;25.40;99.90;;;;;;4953332;28;20371;-76
2023/06/09 08:44:18;;;;;;;19.10;11.80;;;25.20;99.90;;;;;;4949362;29;20097;-77
2023/06/09 08:46:48;;;;;;;16.35;11.30;;;25.90;99.90;;;;;;4953410;28;20038;-77
2023/06/09 08:49:16;;;;;;;25.10;12.55;;;26.50;99.90;;;;;;4953528;28;20337;-77
2023/06/09 08:51:43;;;;;;;17.85;10.60;;;26.30;99.90;;;;;;4953854;28;20440;-76
2023/06/09 08:54:13;;;;;;;18.48;10.70;;;26.60;99.90;;;;;;4950404;28;20126;-75
2023/06/09 08:56:40;;;;;;;14.73;10.45;;;26.60;99.90;;;;;;4948991;28;20428;-77
2023/06/09 08:59:06;;;;;;;14.60;8.88;;;26.20;99.90;;;;;;4953373;28;20027;-76
2023/06/09 09:01:33;;;;;;;16.02;9.95;;;25.90;99.90;;;;;;4952543;28;20023;-76
2023/06/09 09:03:58;;;;;;;15.32;10.27;;;25.60;99.90;;;;;;4953396;29;20042;-76
2023/06/09 09:06:24;;;;;;;17.35;11.07;;;25.70;99.90;;;;;;4952907;28;20027;-75
2023/06/09 09:08:51;;;;;;;14.60;9.35;;;;;;;;;;4952612;28;20118;-75
2023/06/09 09:11:17;;;;;;;15.27;10.05;;;25.50;99.90;;;;;;4953324;28;20483;-77
2023/06/09 09:13:47;;;;;;;14.10;9.15;;;25.20;99.90;;;;;;4953609;28;20097;-77
2023/06/09 09:16:14;;;;;;;14.88;9.80;;;25.50;99.90;;;;;;4951971;28;20023;-76
2023/06/09 09:18:46;;;;;;;12.15;9.05;;;25.90;99.90;;;;;;4952653;29;20023;-76
2023/06/09 09:21:23;;;;;;;13.02;8.43;;;26.00;99.90;;;;;;4953777;28;20023;-77
2023/06/09 09:24:07;;;;;;;18.13;9.80;;;25.90;99.90;;;;;;4957106;28;20034;-78
2023/06/09 09:26:33;;;;;;;14.57;8.75;;;25.60;99.90;;;;;;4957118;28;20114;-77
2023/06/09 09:29:04;;;;;;;16.85;8.75;;;26.00;99.90;;;;;;4950015;28;20036;-73
2023/06/09 09:31:32;;;;;;;14.60;9.90;;;26.20;99.90;;;;;;4946023;28;20038;-76
2023/06/09 09:33:58;;;;;;;14.98;9.40;;;26.60;99.90;;;;;;4956425;28;20042;-74
2023/06/09 09:36:24;;;;;;;14.50;9.95;;;26.50;99.90;;;;;;4956422;29;20019;-76
2023/06/09 09:38:51;;;;;;;16.05;9.35;;;;;;;;;;4938949;29;20087;-75
2023/06/09 09:41:16;;;;;;;18.02;10.02;;;27.00;99.90;;;;;;4939448;29;20039;-74
2023/06/09 09:43:46;;;;;;;15.02;9.90;;;26.80;99.90;;;;;;4956004;28;20023;-76
2023/06/09 09:46:12;;;;;;;14.77;9.30;;;26.80;99.90;;;;;;4956352;28;20030;-74
2023/06/09 09:48:38;;;;;;;14.75;9.10;;;27.00;99.90;;;;;;4956210;28;20416;-75
2023/06/09 09:51:05;;;;;;;13.95;9.00;;;27.20;99.90;;;;;;4938523;29;20069;-75
2023/06/09 09:53:31;;;;;;;14.95;9.35;;;27.20;99.90;;;;;;4938191;28;20565;-74
2023/06/09 09:56:00;;;;;;;13.77;9.10;;;27.10;99.90;;;;;;4956449;28;20027;-77
2023/06/09 09:58:33;;;;;;;14.65;9.48;;;27.10;99.90;;;;;;4956067;28;20019;-77
2023/06/09 10:01:03;;;;;;;11.68;7.20;;;27.20;99.90;;;;;;4952652;29;20383;-76
2023/06/09 10:03:30;;;;;;;11.48;8.35;;;27.00;99.90;;;;;;4956309;28;20045;-77
2023/06/09 10:05:59;;;;;;;12.65;8.45;;;26.80;99.90;;;;;;4956611;28;20035;-77
2023/06/09 10:08:28;;;;;;;12.35;7.63;;;26.80;99.90;;;;;;4956037;28;20055;-78
2023/06/09 10:11:02;;;;;;;14.50;8.60;;;26.80;99.90;;;;;;4967786;28;20037;-76
2023/06/09 10:13:29;;;;;;;13.40;8.00;;;26.80;99.90;;;;;;4943585;29;20438;-78
2023/06/09 10:15:56;;;;;;;12.88;8.02;;;26.60;99.90;;;;;;4956120;28;20031;-77
2023/06/09 10:18:23;;;;;;;14.73;9.10;;;26.30;99.90;;;;;;4951085;29;20063;-78
2023/06/09 10:20:50;;;;;;;14.13;8.30;;;26.50;99.90;;;;;;4953558;28;20049;-78
2023/06/09 10:23:16;;;;;;;14.20;8.98;;;26.70;99.90;;;;;;4941866;28;20384;-75
2023/06/09 10:25:45;;;;;;;15.63;9.15;;;26.60;99.90;;;;;;4936614;29;20030;-77
2023/06/09 10:28:12;;;;;;;11.43;7.70;;;26.80;99.90;;;;;;4940799;29;20498;-77
2023/06/09 10:30:38;;;;;;;12.13;8.25;;;26.70;99.90;;;;;;4937419;29;20036;-75
2023/06/09 10:33:31;;;;;;;13.60;8.55;;;26.80;99.90;;;;;;4934552;29;20103;-79
2023/06/09 10:35:59;;;;;;;11.93;7.68;;;26.40;99.90;;;;;;4939276;29;20062;-76
2023/06/09 10:38:26;;;;;;;14.57;8.40;;;26.40;99.90;;;;;;4952552;28;20035;-77
2023/06/09 10:41:05;;;;;;;10.93;7.18;;;26.30;99.90;;;;;;4954015;28;20023;-75
2023/06/09 10:44:09;;;;;;;14.80;8.90;;;26.60;99.90;;;;;;4949910;28;20511;-76
2023/06/09 10:46:42;;;;;;;16.48;9.25;;;26.50;99.90;;;;;;4953586;28;20023;-78
2023/06/09 10:49:24;;;;;;;14.95;9.68;;;26.20;99.90;;;;;;4938224;29;20039;-78
2023/06/09 10:51:50;;;;;;;14.43;10.02;;;26.30;99.90;;;;;;4943135;28;20471;-76
2023/06/09 10:54:21;;;;;;;14.70;9.13;;;26.50;99.90;;;;;;4955597;28;20028;-77
2023/06/09 10:57:29;;;;;;;11.80;8.25;;;26.60;99.90;;;;;;4955291;28;20434;-78
2023/06/09 10:59:54;;;;;;;14.90;7.82;;;26.50;99.90;;;;;;4955517;28;20134;-80
2023/06/09 11:02:21;;;;;;;12.68;8.45;;;26.70;99.90;;;;;;4955655;28;20523;-79
2023/06/09 11:04:49;;;;;;;14.07;8.75;;;26.60;99.90;;;;;;4955595;28;20078;-78
2023/06/09 11:07:28;;;;;;;10.68;7.38;;;26.70;99.90;;;;;;4955217;28;20086;-76
2023/06/09 11:09:57;;;;;;;12.18;7.32;;;26.50;99.90;;;;;;4955294;29;20117;-76
2023/06/09 11:12:29;;;;;;;12.50;6.72;;;26.50;99.90;;;;;;4954745;29;20043;-77
2023/06/09 11:14:57;;;;;;;8.07;5.50;;;26.60;99.90;;;;;;4955371;29;20031;-77
2023/06/09 11:17:25;;;;;;;10.90;7.18;;;26.50;99.90;;;;;;4955134;29;20023;-78
2023/06/09 11:20:09;;;;;;;11.02;7.25;;;26.90;99.90;;;;;;4954949;29;20390;-78
2023/06/09 11:22:41;;;;;;;12.15;7.13;;;26.70;99.90;;;;;;4937662;29;20046;-77
2023/06/09 11:25:08;;;;;;;;;;;26.70;99.90;;;;;;4938258;29;20082;-77
2023/06/09 11:27:34;;;;;;;12.00;7.65;;;26.70;99.90;;;;;;4955127;29;20285;-78
2023/06/09 11:30:20;;;;;;;12.80;7.57;;;26.70;99.90;;;;;;4955024;29;20099;-77
2023/06/09 11:32:58;;;;;;;11.70;7.55;;;26.90;99.90;;;;;;4954391;29;20054;-78
2023/06/09 11:35:32;;;;;;;12.02;8.27;;;27.30;99.90;;;;;;4954575;29;20035;-79
2023/06/09 11:37:59;;;;;;;11.00;7.65;;;27.40;99.90;;;;;;4954874;29;20039;-78
2023/06/09 11:40:30;;;;;;;11.05;7.28;;;27.20;99.90;;;;;;4954858;29;20024;-77
2023/06/09 11:42:57;;;;;;;10.68;7.22;;;27.20;99.90;;;;;;4954682;29;20383;-77
2023/06/09 11:45:24;;;;;;;10.38;7.20;;;27.20;99.90;;;;;;4954209;28;20039;-76
2023/06/09 11:47:57;;;;;;;11.55;7.00;;;27.00;99.90;;;;;;4954613;29;20034;-79
2023/06/09 11:50:25;;;;;;;12.30;7.72;;;27.00;99.90;;;;;;4954192;29;20035;-77
2023/06/09 11:53:10;;;;;;;10.32;7.32;;;26.90;99.90;;;;;;4954529;29;20035;-78
2023/06/09 11:55:36;;;;;;;11.32;7.05;;;26.80;99.90;;;;;;4937325;29;20034;-77
2023/06/09 11:58:04;;;;;;;10.98;7.30;;;27.00;99.90;;;;;;4954411;29;20037;-77
2023/06/09 12:00:32;;;;;;;10.98;6.95;;;27.00;99.90;;;;;;4954542;29;20023;-76
2023/06/09 12:02:59;;;;;;;10.20;6.70;;;26.90;99.90;;;;;;4954146;29;20037;-76
2023/06/09 12:05:26;;;;;;;10.63;6.25;;;26.90;99.90;;;;;;4937355;29;20039;-77
2023/06/09 12:07:53;;;;;;;9.40;6.28;;;26.70;99.90;;;;;;4953868;28;20134;-77
2023/06/09 12:10:22;;;;;;;10.50;6.70;;;26.40;99.90;;;;;;4954378;28;20035;-76
2023/06/09 12:12:52;;;;;;;11.50;6.78;;;26.30;99.90;;;;;;4953899;28;20090;-77
2023/06/09 12:15:21;;;;;;;9.65;5.75;;;26.20;99.90;;;;;;4954243;28;20460;-80
2023/06/09 12:17:52;;;;;;;9.95;7.00;;;26.30;99.90;;;;;;4954125;28;20073;-78
2023/06/09 12:20:18;;;;;;;8.98;5.68;;;26.50;99.90;;;;;;4954304;28;20031;-78
2023/06/09 12:22:44;;;;;;;9.98;6.10;;;26.50;99.90;;;;;;4954100;28;20042;-77
2023/06/09 12:25:20;;;;;;;11.13;5.60;;;26.70;99.90;;;;;;4953879;28;20035;-78
2023/06/09 12:27:46;;;;;;;11.07;5.68;;;26.80;99.90;;;;;;4953414;28;20459;-79
2023/06/09 12:30:39;;;;;;;8.02;5.35;;;26.70;99.90;;;;;;4953948;28;20106;-77
2023/06/09 12:33:10;;;;;;;7.38;4.95;;;26.90;99.90;;;;;;4953569;28;20411;-77
2023/06/09 12:35:46;;;;;;;9.18;5.22;;;26.70;99.90;;;;;;4920722;28;20054;-77
2023/06/09 12:38:13;;;;;;;11.55;5.30;;;26.80;99.90;;;;;;4953988;28;20113;-77
2023/06/09 12:40:56;;;;;;;7.97;5.40;;;26.80;99.90;;;;;;4936561;29;20031;-77
2023/06/09 12:43:23;;;;;;;8.02;5.03;;;26.80;99.90;;;;;;4953918;28;20031;-79
2023/06/09 12:45:54;;;;;;;6.80;4.38;;;26.70;99.90;;;;;;4953886;28;20047;-75
2023/06/09 12:48:20;;;;;;;6.00;3.97;;;26.60;99.90;;;;;;4936549;28;20043;-76